createdAt,value
2023-04-15T00:02:33.078Z,11.45
2023-04-15T00:05:03.283Z,14.98
2023-04-15T00:07:55.155Z,10.30
2023-04-15T00:10:38.330Z,11.07
2023-04-15T00:13:28.855Z,17.20
2023-04-15T00:15:55.656Z,12.35
2023-04-15T00:18:26.834Z,12.40
2023-04-15T00:21:07.555Z,13.63
2023-04-15T00:23:34.463Z,8.43
2023-04-15T00:29:00.009Z,8.75
2023-04-15T00:31:26.955Z,11.02
2023-04-15T00:34:11.311Z,11.35
2023-04-15T00:42:35.145Z,9.65
2023-04-15T00:45:09.521Z,11.07
2023-04-15T00:47:44.760Z,9.43
2023-04-15T00:50:21.174Z,9.98
2023-04-15T00:52:57.172Z,9.43
2023-04-15T00:55:26.167Z,9.50
2023-04-15T00:57:58.487Z,11.85
2023-04-15T01:00:33.504Z,11.73
2023-04-15T01:03:00.740Z,11.45
2023-04-15T01:05:28.728Z,10.65
2023-04-15T01:08:03.118Z,7.63
2023-04-15T01:10:33.780Z,10.65
2023-04-15T01:13:00.588Z,13.50
2023-04-15T01:15:28.115Z,8.52
2023-04-15T01:18:13.944Z,9.38
2023-04-15T01:20:54.392Z,9.88
2023-04-15T01:23:34.331Z,13.90
2023-04-15T01:26:10.240Z,12.63
2023-04-15T01:28:56.604Z,8.15
2023-04-15T01:31:23.570Z,11.88
2023-04-15T01:34:14.710Z,10.98
2023-04-15T01:36:44.580Z,11.57
2023-04-15T01:39:22.770Z,7.45
2023-04-15T01:42:04.428Z,11.00
2023-04-15T01:44:50.064Z,10.35
2023-04-15T01:47:45.525Z,7.25
2023-04-15T01:50:21.970Z,10.40
2023-04-15T01:52:57.188Z,8.43
2023-04-15T01:55:24.037Z,8.70
2023-04-15T01:58:00.544Z,7.15
2023-04-15T02:00:33.696Z,9.27
2023-04-15T02:03:00.778Z,10.35
2023-04-15T02:05:34.090Z,10.80
2023-04-15T02:08:07.818Z,7.47
2023-04-15T02:10:34.872Z,7.95
2023-04-15T02:13:02.015Z,7.10
2023-04-15T02:15:31.917Z,6.72
2023-04-15T02:17:59.467Z,6.25
2023-04-15T02:20:32.530Z,8.02
2023-04-15T02:23:11.997Z,6.30
2023-04-15T02:25:41.759Z,7.38
2023-04-15T02:28:08.680Z,7.13
2023-04-15T02:30:35.580Z,8.48
2023-04-15T02:33:03.431Z,6.45
2023-04-15T02:35:30.739Z,9.75
2023-04-15T02:37:57.703Z,4.60
2023-04-15T02:40:24.746Z,5.20
2023-04-15T02:42:51.795Z,3.50
2023-04-15T02:45:21.439Z,6.93
2023-04-15T02:47:57.522Z,4.85
2023-04-15T02:50:25.603Z,4.80
2023-04-15T02:52:54.860Z,3.60
2023-04-15T02:55:23.330Z,2.28
2023-04-15T02:57:50.329Z,3.03
2023-04-15T03:00:17.462Z,4.50
2023-04-15T03:02:46.445Z,3.95
2023-04-15T03:05:14.912Z,3.75
2023-04-15T03:07:41.836Z,3.72
2023-04-15T03:10:10.892Z,4.68
2023-04-15T03:12:37.988Z,3.33
2023-04-15T03:15:05.122Z,2.55
2023-04-15T03:17:42.759Z,3.45
2023-04-15T03:20:10.713Z,3.40
2023-04-15T03:22:43.958Z,2.20
2023-04-15T03:25:11.065Z,3.10
2023-04-15T03:27:38.776Z,3.50
2023-04-15T03:30:07.160Z,2.60
2023-04-15T03:32:38.398Z,3.03
2023-04-15T03:35:16.002Z,2.80
2023-04-15T03:37:50.914Z,2.70
2023-04-15T03:40:25.587Z,3.47
2023-04-15T03:43:00.077Z,2.65
2023-04-15T03:45:30.199Z,2.47
2023-04-15T03:50:32.798Z,3.85
2023-04-15T03:53:06.702Z,2.78
2023-04-15T03:55:42.772Z,1.25
2023-04-15T03:58:25.658Z,1.15
2023-04-15T04:00:55.137Z,1.20
2023-04-15T04:03:22.161Z,2.28
2023-04-15T04:05:49.339Z,4.47
2023-04-15T04:08:16.689Z,1.33
2023-04-15T04:10:53.620Z,2.05
2023-04-15T04:13:28.923Z,1.67
2023-04-15T04:15:56.506Z,2.08
2023-04-15T04:18:23.708Z,1.67
2023-04-15T04:20:59.919Z,2.50
2023-04-15T04:23:27.946Z,1.42
2023-04-15T04:25:54.997Z,3.17
2023-04-15T04:28:26.005Z,1.23
2023-04-15T04:30:56.016Z,1.45
2023-04-15T04:33:32.141Z,1.50
2023-04-15T04:36:10.162Z,2.38
2023-04-15T04:38:38.353Z,2.33
2023-04-15T04:44:39.578Z,3.08
2023-04-15T04:47:18.690Z,1.85
2023-04-15T04:49:45.641Z,2.22
2023-04-15T04:52:19.295Z,1.85
2023-04-15T04:54:46.616Z,1.50
2023-04-15T04:57:25.663Z,2.88
2023-04-15T04:59:59.426Z,2.38
2023-04-15T05:02:27.942Z,3.83
2023-04-15T05:04:55.071Z,3.15
2023-04-15T05:07:42.339Z,2.25
2023-04-15T05:10:09.737Z,1.15
2023-04-15T05:12:52.947Z,2.17
2023-04-15T05:15:23.032Z,2.80
2023-04-15T05:17:51.870Z,3.35
2023-04-15T05:20:18.968Z,1.80
2023-04-15T05:22:51.815Z,3.60
2023-04-15T05:25:29.543Z,2.50
2023-04-15T05:27:56.603Z,2.83
2023-04-15T05:30:31.660Z,1.70
2023-04-15T05:32:59.959Z,2.30
2023-04-15T05:35:28.536Z,3.50
2023-04-15T05:37:56.260Z,1.50
2023-04-15T05:40:30.557Z,2.03
2023-04-15T05:43:14.233Z,2.92
2023-04-15T05:45:53.886Z,3.05
2023-04-15T05:48:32.463Z,2.33
2023-04-15T05:51:03.794Z,3.60
2023-04-15T05:53:31.693Z,2.95
2023-04-15T05:55:59.824Z,2.22
2023-04-15T05:58:27.356Z,5.13
2023-04-15T06:00:57.840Z,3.03
2023-04-15T06:03:29.176Z,2.95
2023-04-15T06:06:10.535Z,2.90
2023-04-15T06:08:37.957Z,2.63
2023-04-15T06:11:05.242Z,1.50
2023-04-15T06:13:38.205Z,2.15
2023-04-15T06:16:21.404Z,7.80
2023-04-15T06:18:54.338Z,5.20
2023-04-15T06:21:21.857Z,2.60
2023-04-15T06:23:50.996Z,3.25
2023-04-15T06:26:18.081Z,3.67
2023-04-15T06:28:54.570Z,5.03
2023-04-15T06:31:21.805Z,3.25
2023-04-15T06:33:48.975Z,1.85
2023-04-15T06:36:16.540Z,3.08
2023-04-15T06:38:50.791Z,3.08
2023-04-15T06:41:21.436Z,3.20
2023-04-15T06:43:48.657Z,4.15
2023-04-15T06:46:15.792Z,3.13
2023-04-15T06:48:42.858Z,2.47
2023-04-15T06:51:10.087Z,3.72
2023-04-15T06:53:44.893Z,1.52
2023-04-15T06:56:11.916Z,2.47
2023-04-15T07:01:36.933Z,3.38
2023-04-15T07:04:04.029Z,2.53
2023-04-15T07:06:31.011Z,2.53
2023-04-15T07:08:57.987Z,5.68
2023-04-15T07:11:26.737Z,2.17
2023-04-15T07:13:56.704Z,6.35
2023-04-15T07:16:23.693Z,2.60
2023-04-15T07:18:54.084Z,3.92
2023-04-15T07:21:23.729Z,3.63
2023-04-15T07:23:52.288Z,3.70
2023-04-15T07:26:28.311Z,4.30
2023-04-15T07:28:58.284Z,2.30
2023-04-15T07:31:25.325Z,2.72
2023-04-15T07:33:58.892Z,1.50
2023-04-15T07:36:29.680Z,3.60
2023-04-15T07:39:07.759Z,2.92
2023-04-15T07:41:37.299Z,3.95
2023-04-15T07:44:07.834Z,2.17
2023-04-15T07:46:38.915Z,4.25
2023-04-15T07:49:06.013Z,2.33
2023-04-15T07:51:36.208Z,3.50
2023-04-15T07:54:06.177Z,2.83
2023-04-15T07:56:33.118Z,3.83
2023-04-15T07:59:04.947Z,3.78
2023-04-15T08:01:35.908Z,3.25
2023-04-15T08:04:04.178Z,2.08
2023-04-15T08:06:31.419Z,2.45
2023-04-15T08:08:58.406Z,2.75
2023-04-15T08:11:35.026Z,3.35
2023-04-15T08:14:02.455Z,2.47
2023-04-15T08:16:30.097Z,3.38
2023-04-15T08:19:04.255Z,2.70
2023-04-15T08:21:37.491Z,2.67
2023-04-15T08:24:04.441Z,2.22
2023-04-15T08:26:34.747Z,2.70
2023-04-15T08:29:05.414Z,3.03
2023-04-15T08:31:33.124Z,2.55
2023-04-15T08:34:04.704Z,1.33
2023-04-15T08:36:32.926Z,3.47
2023-04-15T08:39:05.239Z,3.97
2023-04-15T08:44:06.971Z,3.95
2023-04-15T08:46:37.775Z,2.58
2023-04-15T08:49:15.120Z,2.83
2023-04-15T08:51:50.101Z,4.18
2023-04-15T08:54:25.088Z,3.58
2023-04-15T08:57:15.736Z,3.90
2023-04-15T09:00:05.783Z,1.75
2023-04-15T09:02:39.629Z,5.95
2023-04-15T09:05:08.486Z,1.70
2023-04-15T09:07:47.042Z,3.35
2023-04-15T09:10:23.763Z,2.33
2023-04-15T09:12:57.591Z,4.10
2023-04-15T09:15:34.109Z,3.95
2023-04-15T09:18:12.764Z,12.50
2023-04-15T09:20:49.307Z,6.15
2023-04-15T09:23:34.464Z,6.43
2023-04-15T09:26:12.377Z,5.43
2023-04-15T09:28:48.687Z,3.40
2023-04-15T09:31:41.629Z,4.68
2023-04-15T09:34:12.962Z,5.05
2023-04-15T09:36:56.602Z,3.85
2023-04-15T09:39:25.539Z,4.00
2023-04-15T09:42:09.908Z,5.88
2023-04-15T09:44:38.131Z,5.30
2023-04-15T09:47:05.297Z,5.13
2023-04-15T09:49:43.997Z,5.75
2023-04-15T09:52:18.819Z,4.60
2023-04-15T09:54:57.485Z,8.23
2023-04-15T09:57:25.133Z,3.30
2023-04-15T09:59:55.871Z,4.82
2023-04-15T10:02:26.343Z,5.25
2023-04-15T10:04:56.443Z,5.40
2023-04-15T10:07:27.566Z,4.88
2023-04-15T10:10:00.402Z,3.95
2023-04-15T10:12:32.178Z,5.07
2023-04-15T10:15:04.068Z,4.55
2023-04-15T10:17:39.118Z,5.45
2023-04-15T10:20:13.402Z,4.85
2023-04-15T10:22:49.300Z,8.57
2023-04-15T10:25:30.268Z,5.65
2023-04-15T10:28:03.790Z,2.70
2023-04-15T10:30:33.642Z,6.20
2023-04-15T10:33:15.720Z,4.50
2023-04-15T10:35:44.046Z,5.18
2023-04-15T10:38:47.848Z,7.57
2023-04-15T10:41:23.837Z,2.55
2023-04-15T10:43:56.108Z,10.18
2023-04-15T10:49:51.299Z,7.20
2023-04-15T10:52:38.145Z,5.40
2023-04-15T10:55:23.100Z,8.27
2023-04-15T10:58:05.689Z,5.20
2023-04-15T11:03:16.303Z,5.25
2023-04-15T11:06:07.280Z,8.15
2023-04-15T11:09:03.303Z,7.30
2023-04-15T11:12:14.983Z,5.07
2023-04-15T11:14:43.700Z,6.32
2023-04-15T11:17:11.572Z,5.35
2023-04-15T11:19:39.483Z,7.30
2023-04-15T11:22:21.298Z,5.35
2023-04-15T11:24:59.992Z,5.40
2023-04-15T11:27:31.880Z,7.85
2023-04-15T11:30:08.030Z,6.20
2023-04-15T11:32:35.373Z,8.48
2023-04-15T11:35:02.384Z,4.05
2023-04-15T11:37:32.134Z,5.90
2023-04-15T11:40:01.858Z,5.05
2023-04-15T11:42:49.592Z,6.32
2023-04-15T11:45:18.469Z,6.60
2023-04-15T11:47:54.188Z,5.28
2023-04-15T11:50:24.411Z,4.93
2023-04-15T11:53:01.727Z,5.70
2023-04-15T11:55:35.369Z,7.05
2023-04-15T11:58:33.041Z,6.45
2023-04-15T12:01:01.588Z,6.32
2023-04-15T12:03:45.350Z,4.97
2023-04-15T12:06:46.647Z,7.60
2023-04-15T12:09:37.951Z,7.88
2023-04-15T12:12:16.433Z,6.80
2023-04-15T12:14:43.748Z,5.63
2023-04-15T12:17:17.199Z,6.50
2023-04-15T12:19:57.744Z,5.55
2023-04-15T12:22:38.427Z,6.57
2023-04-15T12:25:05.858Z,6.05
2023-04-15T12:27:45.938Z,4.40
2023-04-15T12:30:16.375Z,6.55
2023-04-15T12:32:46.515Z,4.05
2023-04-15T12:35:13.749Z,4.50
2023-04-15T12:37:41.497Z,8.07
2023-04-15T12:40:09.270Z,7.30
2023-04-15T12:42:38.161Z,5.53
2023-04-15T12:45:05.716Z,4.60
2023-04-15T12:47:32.860Z,7.00
2023-04-15T12:50:00.040Z,6.45
2023-04-15T12:52:30.165Z,4.53
2023-04-15T12:54:57.189Z,7.07
2023-04-15T12:57:27.280Z,7.68
2023-04-15T12:59:58.417Z,7.65
2023-04-15T13:02:31.851Z,7.07
2023-04-15T13:04:59.438Z,5.82
2023-04-15T13:07:36.700Z,7.07
2023-04-15T13:10:03.866Z,7.72
2023-04-15T13:12:43.736Z,5.85
2023-04-15T13:15:16.466Z,8.63
2023-04-15T13:17:55.953Z,6.15
2023-04-15T13:20:32.514Z,4.97
2023-04-15T13:23:25.494Z,7.70
2023-04-15T13:25:52.702Z,6.68
2023-04-15T13:28:34.239Z,6.25
2023-04-15T13:31:18.086Z,7.13
2023-04-15T13:33:57.456Z,3.63
2023-04-15T13:36:34.898Z,7.00
2023-04-15T13:39:21.777Z,7.80
2023-04-15T13:42:10.751Z,7.22
2023-04-15T13:44:42.454Z,7.45
2023-04-15T13:47:10.825Z,5.60
2023-04-15T13:50:03.685Z,8.40
2023-04-15T13:52:30.724Z,7.60
2023-04-15T13:55:06.225Z,7.88
2023-04-15T13:57:47.110Z,5.88
2023-04-15T14:00:14.868Z,6.43
2023-04-15T14:02:42.717Z,6.05
2023-04-15T14:05:12.190Z,6.57
2023-04-15T14:07:39.422Z,6.25
2023-04-15T14:10:06.879Z,5.97
2023-04-15T14:12:36.943Z,7.25
2023-04-15T14:15:08.572Z,6.53
2023-04-15T14:17:35.797Z,5.38
2023-04-15T14:20:29.497Z,6.35
2023-04-15T14:22:57.596Z,7.70
2023-04-15T14:25:39.759Z,8.50
2023-04-15T14:28:09.682Z,6.60
2023-04-15T14:31:13.901Z,6.50
2023-04-15T14:34:00.271Z,11.55
2023-04-15T14:36:37.379Z,8.95
2023-04-15T14:39:08.765Z,8.52
2023-04-15T14:41:36.350Z,7.50
2023-04-15T14:44:04.014Z,7.70
2023-04-15T14:46:33.900Z,7.35
2023-04-15T14:49:04.233Z,9.05
2023-04-15T14:51:42.973Z,7.32
2023-04-15T14:54:27.568Z,6.88
2023-04-15T14:57:00.014Z,8.25
2023-04-15T15:02:00.024Z,7.97
2023-04-15T15:04:53.964Z,4.05
2023-04-15T15:10:32.144Z,5.88
2023-04-15T15:13:13.012Z,8.25
2023-04-15T15:15:46.434Z,5.43
2023-04-15T15:18:22.154Z,7.68
2023-04-15T15:20:55.243Z,9.43
2023-04-15T15:23:22.333Z,7.78
2023-04-15T15:25:53.578Z,7.68
2023-04-15T15:28:22.174Z,7.07
2023-04-15T15:30:49.296Z,8.73
2023-04-15T15:33:18.666Z,6.25
2023-04-15T15:35:47.986Z,5.80
2023-04-15T15:38:19.456Z,7.65
2023-04-15T15:40:56.959Z,12.87
2023-04-15T15:43:33.332Z,7.95
2023-04-15T15:46:20.130Z,9.75
2023-04-15T15:49:30.490Z,12.23
2023-04-15T15:51:59.776Z,8.68
2023-04-15T15:54:35.626Z,8.15
2023-04-15T15:57:02.542Z,9.68
2023-04-15T15:59:29.539Z,7.70
2023-04-15T16:02:00.282Z,6.82
2023-04-15T16:04:30.456Z,6.10
2023-04-15T16:06:57.632Z,5.40
2023-04-15T16:09:37.934Z,7.43
2023-04-15T16:12:36.266Z,7.60
2023-04-15T16:15:08.451Z,8.55
2023-04-15T16:17:47.043Z,7.22
2023-04-15T16:20:14.120Z,8.13
2023-04-15T16:22:41.282Z,7.13
2023-04-15T16:25:08.651Z,9.07
2023-04-15T16:28:00.752Z,8.93
2023-04-15T16:33:39.604Z,13.20
2023-04-15T16:36:15.600Z,8.75
2023-04-15T16:38:51.602Z,7.35
2023-04-15T16:41:19.338Z,11.32
2023-04-15T16:43:58.456Z,9.13
2023-04-15T16:46:34.377Z,9.50
2023-04-15T16:49:11.768Z,8.55
2023-04-15T16:52:05.660Z,8.77
2023-04-15T16:54:43.726Z,8.50
2023-04-15T16:57:10.891Z,6.68
2023-04-15T16:59:46.203Z,9.10
2023-04-15T17:02:15.431Z,10.70
2023-04-15T17:07:26.247Z,6.80
2023-04-15T17:10:02.188Z,7.03
2023-04-15T17:12:30.520Z,9.40
2023-04-15T17:15:10.947Z,8.80
2023-04-15T17:17:54.750Z,5.85
2023-04-15T17:20:25.038Z,7.13
2023-04-15T17:23:08.206Z,10.23
2023-04-15T17:25:40.015Z,6.82
2023-04-15T17:28:07.378Z,9.75
2023-04-15T17:30:37.228Z,6.05
2023-04-15T17:33:50.511Z,9.32
2023-04-15T17:36:07.742Z,9.93
2023-04-15T17:38:44.379Z,7.72
2023-04-15T17:41:14.594Z,5.40
2023-04-15T17:43:44.397Z,7.10
2023-04-15T17:46:13.693Z,5.45
2023-04-15T17:48:57.066Z,6.60
2023-04-15T17:51:42.706Z,5.30
2023-04-15T17:54:10.043Z,6.93
2023-04-15T17:56:47.447Z,7.88
2023-04-15T17:59:38.320Z,6.40
2023-04-15T18:02:11.693Z,7.13
2023-04-15T18:04:39.119Z,6.97
2023-04-15T18:07:33.706Z,6.25
2023-04-15T18:10:20.936Z,8.57
2023-04-15T18:12:48.502Z,6.80
2023-04-15T18:15:15.636Z,6.32
2023-04-15T18:17:42.765Z,6.53
2023-04-15T18:21:03.077Z,7.03
2023-04-15T18:23:34.795Z,6.43
2023-04-15T18:26:13.863Z,7.35
2023-04-15T18:29:11.124Z,6.55
2023-04-15T18:31:45.872Z,6.18
2023-04-15T18:34:13.445Z,6.78
2023-04-15T18:36:45.384Z,5.05
2023-04-15T18:39:15.816Z,4.57
2023-04-15T18:41:51.743Z,6.68
2023-04-15T18:44:38.408Z,5.18
2023-04-15T18:47:15.477Z,6.40
2023-04-15T18:49:42.502Z,6.57
2023-04-15T18:52:17.865Z,4.50
2023-04-15T18:54:44.757Z,5.93
2023-04-15T18:57:11.797Z,8.02
2023-04-15T18:59:39.943Z,8.27
2023-04-15T19:02:08.604Z,8.05
2023-04-15T19:05:04.527Z,7.30
2023-04-15T19:07:32.152Z,4.32
2023-04-15T19:10:37.029Z,7.85
2023-04-15T19:13:22.808Z,5.35
2023-04-15T19:15:58.714Z,6.10
2023-04-15T19:18:29.945Z,8.38
2023-04-15T19:21:01.012Z,12.50
2023-04-15T19:23:31.698Z,5.47
2023-04-15T19:25:59.150Z,5.95
2023-04-15T19:28:29.581Z,6.20
2023-04-15T19:31:12.136Z,5.43
2023-04-15T19:36:36.566Z,7.78
2023-04-15T19:39:03.887Z,5.88
2023-04-15T19:41:31.152Z,7.53
2023-04-15T19:44:29.238Z,7.95
2023-04-15T19:47:16.493Z,6.07
2023-04-15T19:50:04.809Z,8.35
2023-04-15T19:52:31.752Z,6.90
2023-04-15T19:55:10.192Z,7.15
2023-04-15T19:58:07.996Z,7.63
2023-04-15T20:00:47.324Z,8.65
2023-04-15T20:03:25.398Z,6.53
2023-04-15T20:06:07.577Z,5.30
2023-04-15T20:08:40.306Z,8.90
2023-04-15T20:11:26.150Z,6.15
2023-04-15T20:14:12.467Z,6.93
2023-04-15T20:16:57.532Z,5.80
2023-04-15T20:19:35.974Z,6.45
2023-04-15T20:22:03.016Z,6.38
2023-04-15T20:24:30.847Z,6.72
2023-04-15T20:26:57.962Z,6.80
2023-04-15T20:29:25.134Z,6.57
2023-04-15T20:35:00.528Z,7.25
2023-04-15T20:37:28.040Z,8.32
2023-04-15T20:40:00.060Z,7.03
2023-04-15T20:42:48.581Z,7.63
2023-04-15T20:45:21.085Z,6.47
2023-04-15T20:48:03.834Z,5.95
2023-04-15T20:50:32.406Z,10.23
2023-04-15T20:53:05.118Z,7.88
2023-04-15T20:55:32.299Z,9.05
2023-04-15T20:57:59.531Z,9.98
2023-04-15T21:00:33.548Z,6.68
2023-04-15T21:03:00.741Z,6.18
2023-04-15T21:05:27.860Z,12.70
2023-04-15T21:08:08.132Z,8.98
2023-04-15T21:10:37.401Z,7.60
2023-04-15T21:13:13.596Z,10.93
2023-04-15T21:15:54.497Z,6.10
2023-04-15T21:18:22.581Z,6.95
2023-04-15T21:21:22.220Z,6.70
2023-04-15T21:26:57.747Z,6.63
2023-04-15T21:29:37.095Z,7.20
2023-04-15T21:32:08.469Z,6.45
2023-04-15T21:34:51.515Z,10.65
2023-04-15T21:37:30.617Z,8.90
2023-04-15T21:40:06.701Z,6.13
2023-04-15T21:43:04.621Z,6.90
2023-04-15T21:45:31.574Z,9.05
2023-04-15T21:48:08.225Z,8.15
2023-04-15T21:50:45.816Z,7.00
2023-04-15T21:53:54.481Z,9.23
2023-04-15T21:56:32.313Z,10.32
2023-04-15T21:59:32.342Z,9.20
2023-04-15T22:02:01.230Z,9.38
2023-04-15T22:04:51.903Z,5.78
2023-04-15T22:07:49.782Z,8.68
2023-04-15T22:10:38.137Z,16.63
2023-04-15T22:13:09.083Z,8.43
2023-04-15T22:15:37.747Z,10.27
2023-04-15T22:18:05.949Z,12.02
2023-04-15T22:20:33.069Z,9.75
2023-04-15T22:23:00.112Z,10.00
2023-04-15T22:25:31.976Z,8.75
2023-04-15T22:27:59.024Z,8.13
2023-04-15T22:30:28.057Z,11.23
2023-04-15T22:32:57.946Z,13.00
2023-04-15T22:35:25.268Z,13.80
2023-04-15T22:38:06.210Z,12.52
2023-04-15T22:40:36.421Z,14.88
2023-04-15T22:43:05.871Z,9.43
2023-04-15T22:45:32.884Z,11.32
2023-04-15T22:48:12.211Z,12.20
2023-04-15T22:50:54.764Z,8.23
2023-04-15T22:54:09.746Z,14.60
2023-04-15T22:56:39.515Z,7.78
2023-04-15T22:59:08.575Z,9.68
2023-04-15T23:01:46.715Z,8.07
2023-04-15T23:04:25.669Z,11.13
2023-04-15T23:07:01.114Z,9.07
2023-04-15T23:09:28.090Z,14.43
2023-04-15T23:11:58.193Z,10.65
2023-04-15T23:14:26.554Z,9.68
2023-04-15T23:16:53.556Z,7.10
2023-04-15T23:19:26.625Z,11.95
2023-04-15T23:22:07.014Z,11.85
2023-04-15T23:25:07.122Z,7.75
2023-04-15T23:27:34.261Z,10.40
2023-04-15T23:30:01.203Z,11.60
2023-04-15T23:32:31.255Z,8.43
2023-04-15T23:35:07.464Z,14.63
2023-04-15T23:40:45.078Z,10.70
2023-04-15T23:43:14.807Z,9.35
2023-04-15T23:45:47.639Z,11.70
2023-04-15T23:48:24.991Z,11.55
2023-04-15T23:51:01.832Z,8.48
2023-04-15T23:53:51.113Z,9.93
2023-04-15T23:56:18.330Z,11.88
2023-04-15T23:59:23.150Z,11.13
